createdAt,value
2019-04-01T00:01:59.494Z,49.70
2019-04-01T00:04:01.181Z,54.40
2019-04-01T00:06:03.206Z,51.50
2019-04-01T00:08:04.880Z,54.30
2019-04-01T00:10:06.812Z,55.40
2019-04-01T00:12:08.495Z,58.20
2019-04-01T00:14:10.186Z,59.10
2019-04-01T00:16:11.865Z,55.00
2019-04-01T00:18:13.546Z,52.50
2019-04-01T00:20:15.221Z,57.10
2019-04-01T00:22:16.917Z,58.20
2019-04-01T00:24:18.604Z,57.20
2019-04-01T00:26:20.542Z,57.80
2019-04-01T00:28:22.212Z,54.50
2019-04-01T00:30:23.906Z,54.60
2019-04-01T00:32:25.587Z,57.40
2019-04-01T00:34:27.564Z,56.80
2019-04-01T00:36:29.246Z,58.10
2019-04-01T00:38:30.931Z,56.10
2019-04-01T00:40:32.613Z,57.40
2019-04-01T00:42:42.050Z,56.10
2019-04-01T00:44:43.984Z,56.90
2019-04-01T00:46:45.650Z,60.10
2019-04-01T00:48:47.329Z,60.20
2019-04-01T00:50:49.009Z,62.70
2019-04-01T00:52:50.704Z,59.80
2019-04-01T00:54:52.388Z,62.20
2019-04-01T00:56:54.081Z,61.90
2019-04-01T00:58:55.761Z,64.90
2019-04-01T01:00:57.454Z,67.00
2019-04-01T01:02:59.135Z,62.70
2019-04-01T01:05:00.816Z,61.00
2019-04-01T01:07:02.491Z,64.50
2019-04-01T01:09:05.366Z,67.40
2019-04-01T01:11:07.037Z,65.70
2019-04-01T01:13:08.981Z,65.20
2019-04-01T01:15:10.665Z,67.40
2019-04-01T01:17:12.440Z,70.40
2019-04-01T01:19:14.140Z,72.10
2019-04-01T01:21:16.200Z,71.10
2019-04-01T01:23:17.874Z,69.40
2019-04-01T01:25:19.558Z,69.40
2019-04-01T01:27:21.229Z,67.40
2019-04-01T01:29:23.205Z,67.20
2019-04-01T01:31:25.100Z,67.20
2019-04-01T01:33:27.102Z,67.00
2019-04-01T01:35:28.785Z,67.00
2019-04-01T01:37:30.453Z,68.20
2019-04-01T01:39:32.410Z,67.10
2019-04-01T01:41:34.093Z,67.10
2019-04-01T01:43:35.768Z,64.50
2019-04-01T01:45:37.563Z,67.20
2019-04-01T01:47:39.257Z,68.20
2019-04-01T01:49:40.934Z,69.40
2019-04-01T01:51:42.621Z,67.20
2019-04-01T01:53:44.294Z,63.70
2019-04-01T01:55:45.982Z,62.00
2019-04-01T01:57:47.946Z,65.30
2019-04-01T01:59:49.625Z,65.70
2019-04-01T02:01:51.325Z,66.40
2019-04-01T02:03:53.006Z,65.30
2019-04-01T02:05:54.704Z,64.80
2019-04-01T02:07:56.372Z,65.20
2019-04-01T02:09:58.044Z,64.40
2019-04-01T02:12:00.371Z,66.80
2019-04-01T02:14:02.038Z,65.60
2019-04-01T02:16:03.730Z,67.80
2019-04-01T02:18:05.404Z,67.50
2019-04-01T02:20:07.078Z,69.70
2019-04-01T02:22:08.760Z,70.50
2019-04-01T02:24:10.435Z,66.60
2019-04-01T02:26:12.129Z,67.90
2019-04-01T02:28:13.805Z,70.20
2019-04-01T02:30:15.511Z,70.70
2019-04-01T02:32:17.199Z,71.40
2019-04-01T02:34:19.247Z,72.70
2019-04-01T02:36:20.938Z,71.80
2019-04-01T02:38:22.609Z,74.40
2019-04-01T02:40:24.304Z,71.00
2019-04-01T02:42:25.980Z,69.00
2019-04-01T02:44:27.643Z,68.70
2019-04-01T02:46:29.334Z,71.10
2019-04-01T02:48:31.020Z,73.90
2019-04-01T02:50:32.771Z,74.40
2019-04-01T02:52:34.433Z,71.40
2019-04-01T02:54:36.106Z,73.20
2019-04-01T02:56:37.790Z,74.80
2019-04-01T02:58:39.579Z,74.90
2019-04-01T03:00:41.271Z,75.90
2019-04-01T03:02:42.962Z,74.40
2019-04-01T03:04:44.641Z,78.30
2019-04-01T03:06:46.572Z,80.40
2019-04-01T03:08:48.261Z,78.20
2019-04-01T03:10:50.034Z,80.00
2019-04-01T03:12:51.711Z,79.70
2019-04-01T03:14:53.393Z,77.80
2019-04-01T03:16:55.342Z,76.80
2019-04-01T03:18:57.017Z,78.90
2019-04-01T03:20:59.287Z,78.30
2019-04-01T03:23:00.976Z,78.70
2019-04-01T03:25:02.732Z,79.30
2019-04-01T03:27:04.493Z,78.00
2019-04-01T03:29:06.506Z,79.20
2019-04-01T03:31:08.211Z,77.50
2019-04-01T03:33:09.943Z,77.90
2019-04-01T03:35:11.731Z,78.30
2019-04-01T03:37:13.411Z,77.40
2019-04-01T03:39:15.297Z,77.10
2019-04-01T03:41:17.330Z,76.60
2019-04-01T03:43:19.154Z,75.90
2019-04-01T03:45:20.839Z,75.40
2019-04-01T03:47:22.633Z,75.90
2019-04-01T03:49:24.403Z,69.60
2019-04-01T03:51:26.092Z,73.40
2019-04-01T03:53:27.779Z,73.90
2019-04-01T03:55:29.441Z,70.40
2019-04-01T03:57:31.143Z,75.70
2019-04-01T03:59:32.819Z,75.20
2019-04-01T04:01:34.497Z,74.60
2019-04-01T04:03:36.179Z,72.70
2019-04-01T04:05:37.875Z,73.50
2019-04-01T04:07:39.931Z,74.20
2019-04-01T04:09:42.611Z,71.40
2019-04-01T04:11:44.346Z,73.40
2019-04-01T04:13:46.422Z,76.40
2019-04-01T04:15:48.088Z,75.00
2019-04-01T04:17:49.772Z,75.10
2019-04-01T04:19:51.453Z,75.20
2019-04-01T04:21:53.371Z,74.00
2019-04-01T04:23:55.052Z,71.80
2019-04-01T04:25:56.725Z,71.30
2019-04-01T04:27:58.413Z,70.30
2019-04-01T04:30:00.238Z,71.00
2019-04-01T04:32:02.298Z,70.70
2019-04-01T04:34:03.976Z,64.80
2019-04-01T04:36:05.648Z,70.50
2019-04-01T04:38:07.746Z,71.30
2019-04-01T04:40:09.412Z,70.60
2019-04-01T04:42:11.089Z,70.70
2019-04-01T04:44:12.769Z,69.30
2019-04-01T04:46:14.432Z,71.90
2019-04-01T04:48:16.114Z,73.40
2019-04-01T04:50:18.306Z,71.30
2019-04-01T04:52:19.976Z,73.30
2019-04-01T04:54:21.664Z,75.90
2019-04-01T04:56:23.342Z,75.30
2019-04-01T04:58:25.038Z,73.00
2019-04-01T05:00:26.725Z,74.20
2019-04-01T05:02:28.426Z,73.70
2019-04-01T05:04:30.101Z,74.40
2019-04-01T05:06:31.885Z,75.30
2019-04-01T05:08:33.572Z,76.20
2019-04-01T05:10:35.542Z,72.70
2019-04-01T05:12:37.318Z,74.20
2019-04-01T05:14:38.998Z,73.80
2019-04-01T05:16:40.677Z,72.90
2019-04-01T05:18:42.657Z,73.10
2019-04-01T05:20:44.346Z,72.10
2019-04-01T05:22:46.045Z,72.30
2019-04-01T05:24:47.734Z,72.50
2019-04-01T05:26:49.409Z,72.70
2019-04-01T05:28:51.975Z,71.90
2019-04-01T05:30:53.661Z,72.80
2019-04-01T05:32:55.358Z,73.20
2019-04-01T05:34:57.038Z,70.30
2019-04-01T05:36:58.725Z,71.20
2019-04-01T05:39:00.417Z,69.70
2019-04-01T05:41:02.106Z,69.30
2019-04-01T05:43:03.801Z,72.70
2019-04-01T05:45:05.816Z,74.00
2019-04-01T05:47:07.521Z,72.40
2019-04-01T05:49:09.201Z,71.60
2019-04-01T05:51:10.885Z,66.20
2019-04-01T05:53:12.572Z,70.40
2019-04-01T05:55:14.266Z,68.70
2019-04-01T05:57:15.955Z,69.50
2019-04-01T05:59:17.661Z,69.30
2019-04-01T06:01:23.772Z,67.50
2019-04-01T06:03:25.747Z,68.40
2019-04-01T06:05:27.427Z,68.40
2019-04-01T06:07:29.668Z,66.80
2019-04-01T06:09:31.341Z,64.80
2019-04-01T06:11:33.361Z,66.20
2019-04-01T06:13:35.049Z,62.10
2019-04-01T06:15:36.989Z,59.60
2019-04-01T06:17:38.697Z,62.70
2019-04-01T06:19:40.679Z,62.10
2019-04-01T06:21:42.361Z,57.60
2019-04-01T06:23:44.042Z,50.60
2019-04-01T06:25:45.730Z,47.70
2019-04-01T06:27:47.417Z,48.70
2019-04-01T06:29:49.092Z,46.50
2019-04-01T06:31:50.775Z,43.10
2019-04-01T06:33:52.461Z,44.40
2019-04-01T06:35:54.144Z,40.70
2019-04-01T06:37:55.832Z,37.30
2019-04-01T06:39:57.737Z,34.70
2019-04-01T06:41:59.484Z,40.90
2019-04-01T06:44:01.190Z,35.00
2019-04-01T06:46:02.901Z,34.30
2019-04-01T06:48:04.589Z,32.30
2019-04-01T06:50:06.279Z,30.50
2019-04-01T06:52:07.962Z,25.00
2019-04-01T06:54:09.652Z,27.00
2019-04-01T06:56:11.337Z,24.20
2019-04-01T06:58:13.037Z,20.40
2019-04-01T07:00:14.712Z,15.70
2019-04-01T07:02:16.398Z,17.20
2019-04-01T07:04:18.087Z,12.80
2019-04-01T07:06:19.756Z,16.50
2019-04-01T07:08:21.437Z,11.30
2019-04-01T07:10:24.861Z,13.00
2019-04-01T07:12:26.697Z,8.00
2019-04-01T07:14:28.383Z,11.00
2019-04-01T07:16:30.325Z,7.90
2019-04-01T07:18:32.005Z,8.00
2019-04-01T07:20:33.690Z,5.90
2019-04-01T07:22:35.601Z,3.20
2019-04-01T07:24:37.285Z,5.20
2019-04-01T07:26:38.961Z,1.00
2019-04-01T07:28:40.657Z,2.00
2019-04-01T07:30:42.326Z,1.00
2019-04-01T07:32:44.006Z,1.00
2019-04-01T07:34:45.702Z,1.00
2019-04-01T07:36:47.383Z,1.00
2019-04-01T07:38:49.070Z,1.00
2019-04-01T07:40:50.829Z,1.00
2019-04-01T07:42:53.124Z,1.00
2019-04-01T07:44:55.089Z,1.00
2019-04-01T07:46:56.767Z,1.00
2019-04-01T07:48:58.469Z,1.00
2019-04-01T07:51:00.350Z,1.00
2019-04-01T07:53:02.109Z,1.00
2019-04-01T07:55:04.025Z,1.00
2019-04-01T07:57:05.706Z,1.00
2019-04-01T07:59:07.417Z,1.00
2019-04-01T08:01:09.086Z,1.00
2019-04-01T08:03:10.762Z,1.00
2019-04-01T08:05:12.453Z,1.00
2019-04-01T08:07:14.132Z,1.00
2019-04-01T08:09:15.817Z,1.00
2019-04-01T08:11:17.502Z,1.00
2019-04-01T08:13:19.441Z,1.00
2019-04-01T08:15:21.647Z,1.00
2019-04-01T08:17:23.827Z,1.00
2019-04-01T08:19:25.508Z,1.00
2019-04-01T08:21:27.262Z,1.00
2019-04-01T08:23:29.148Z,1.00
2019-04-01T08:25:30.839Z,1.00
2019-04-01T08:27:32.529Z,1.00
2019-04-01T08:29:34.213Z,1.00
2019-04-01T08:31:35.881Z,1.00
2019-04-01T08:33:37.813Z,1.00
2019-04-01T08:35:39.577Z,1.00
2019-04-01T08:37:41.526Z,1.00
2019-04-01T08:39:43.779Z,1.00
2019-04-01T08:41:45.455Z,1.00
2019-04-01T08:43:47.389Z,1.00
2019-04-01T08:45:49.074Z,1.00
2019-04-01T08:47:50.745Z,1.00
2019-04-01T08:49:52.430Z,1.00
2019-04-01T08:51:54.107Z,1.00
2019-04-01T08:53:56.016Z,1.00
2019-04-01T08:56:00.895Z,1.00
2019-04-01T08:58:01.296Z,1.00
2019-04-01T09:00:03.609Z,1.00
2019-04-01T09:02:16.994Z,1.00
2019-04-01T09:04:08.853Z,1.00
2019-04-01T09:06:10.595Z,1.00
2019-04-01T09:08:12.950Z,1.00
2019-04-01T09:10:14.637Z,1.00
2019-04-01T09:12:16.657Z,1.00
2019-04-01T09:14:18.325Z,1.00
2019-04-01T09:16:20.265Z,1.00
2019-04-01T09:18:21.943Z,1.00
2019-04-01T09:20:23.618Z,1.00
2019-04-01T09:22:25.294Z,1.00
2019-04-01T09:24:27.285Z,1.00
2019-04-01T09:26:29.245Z,1.00
2019-04-01T09:28:30.905Z,1.00
2019-04-01T09:30:32.591Z,1.00
2019-04-01T09:32:34.254Z,1.00
2019-04-01T09:34:36.251Z,1.00
2019-04-01T09:36:37.933Z,1.00
2019-04-01T09:38:39.603Z,1.00
2019-04-01T09:40:41.294Z,1.00
2019-04-01T09:42:42.961Z,1.00
2019-04-01T09:44:44.629Z,1.00
2019-04-01T09:46:49.012Z,1.00
2019-04-01T09:48:50.181Z,1.00
2019-04-01T09:50:51.859Z,1.00
2019-04-01T09:52:53.533Z,1.00
2019-04-01T09:54:55.536Z,1.00
2019-04-01T09:56:57.216Z,1.00
2019-04-01T09:58:59.126Z,1.00
2019-04-01T10:01:01.116Z,1.00
2019-04-01T10:03:02.794Z,1.00
2019-04-01T10:05:05.129Z,1.00
2019-04-01T10:07:06.797Z,1.00
2019-04-01T10:09:08.483Z,1.00
2019-04-01T10:11:12.688Z,1.00
2019-04-01T10:13:13.737Z,1.00
2019-04-01T10:15:15.418Z,1.00
2019-04-01T10:17:17.104Z,1.00
2019-04-01T10:19:18.833Z,1.00
2019-04-01T10:21:20.566Z,1.00
2019-04-01T10:23:22.241Z,1.00
2019-04-01T10:25:24.192Z,1.00
2019-04-01T10:27:25.878Z,1.00
2019-04-01T10:29:27.552Z,1.00
2019-04-01T10:31:29.233Z,1.00
2019-04-01T10:33:30.909Z,1.00
2019-04-01T10:35:32.676Z,1.00
2019-04-01T10:37:34.362Z,1.00
2019-04-01T10:39:36.046Z,1.00
2019-04-01T10:41:37.729Z,1.00
2019-04-01T10:43:39.681Z,1.00
2019-04-01T10:45:41.359Z,1.00
2019-04-01T10:47:43.187Z,1.00
2019-04-01T10:49:45.033Z,1.00
2019-04-01T10:51:46.879Z,1.00
2019-04-01T10:53:48.985Z,1.00
2019-04-01T10:55:50.749Z,1.00
2019-04-01T10:57:54.030Z,1.00
2019-04-01T10:59:56.190Z,1.00
2019-04-01T11:01:57.999Z,1.00
2019-04-01T11:03:59.787Z,1.00
2019-04-01T11:06:01.583Z,1.00
2019-04-01T11:08:03.644Z,1.00
2019-04-01T11:10:05.550Z,1.00
2019-04-01T11:12:07.238Z,1.00
2019-04-01T11:14:09.220Z,1.00
2019-04-01T11:16:11.146Z,1.00
2019-04-01T11:18:12.914Z,1.00
2019-04-01T11:20:14.582Z,1.00
2019-04-01T11:22:16.291Z,1.00
2019-04-01T11:24:18.051Z,1.00
2019-04-01T11:26:19.996Z,1.00
2019-04-01T11:28:21.681Z,1.00
2019-04-01T11:30:23.623Z,1.00
2019-04-01T11:32:25.321Z,1.00
2019-04-01T11:34:27.088Z,1.00
2019-04-01T11:36:28.858Z,1.00
2019-04-01T11:38:30.640Z,1.00
2019-04-01T11:40:32.412Z,1.00
2019-04-01T11:42:34.100Z,1.00
2019-04-01T11:44:35.782Z,1.00
2019-04-01T11:46:37.621Z,1.00
2019-04-01T11:48:39.387Z,1.00
2019-04-01T11:50:41.486Z,1.00
2019-04-01T11:52:43.254Z,1.00
2019-04-01T11:54:45.021Z,1.00
2019-04-01T11:56:47.034Z,1.00
2019-04-01T11:58:48.993Z,1.00
2019-04-01T12:00:50.666Z,1.00
2019-04-01T12:02:52.606Z,1.00
2019-04-01T12:04:54.281Z,1.00
2019-04-01T12:06:55.964Z,1.00
2019-04-01T12:08:58.187Z,1.00
2019-04-01T12:11:00.901Z,1.00
2019-04-01T12:13:02.882Z,1.00
2019-04-01T12:15:04.602Z,1.00
2019-04-01T12:17:06.290Z,1.00
2019-04-01T12:19:07.953Z,1.00
2019-04-01T12:21:09.634Z,1.00
2019-04-01T12:23:11.315Z,1.00
2019-04-01T12:25:12.993Z,1.00
2019-04-01T12:27:15.516Z,1.00
2019-04-01T12:29:18.249Z,1.00
2019-04-01T12:31:21.510Z,1.00
2019-04-01T12:33:26.173Z,1.00
2019-04-01T12:35:27.096Z,1.00
2019-04-01T12:37:30.225Z,1.00
2019-04-01T12:39:32.063Z,1.00
2019-04-01T12:41:33.725Z,1.00
2019-04-01T12:43:35.409Z,1.00
2019-04-01T12:45:37.277Z,1.00
2019-04-01T12:47:42.733Z,1.00
2019-04-01T12:49:42.538Z,1.00
2019-04-01T12:51:44.204Z,1.00
2019-04-01T12:53:45.987Z,1.00
2019-04-01T12:55:47.961Z,1.00
2019-04-01T12:57:50.821Z,1.00
2019-04-01T12:59:53.601Z,1.00
2019-04-01T13:01:55.713Z,1.00
2019-04-01T13:03:57.401Z,1.00
2019-04-01T13:05:59.088Z,1.00
2019-04-01T13:08:00.777Z,1.00
2019-04-01T13:10:03.561Z,1.00
2019-04-01T13:12:05.347Z,1.00
2019-04-01T13:14:07.021Z,1.00
2019-04-01T13:16:09.330Z,1.00
2019-04-01T13:18:11.113Z,1.00
2019-04-01T13:20:13.918Z,1.00
2019-04-01T13:22:15.889Z,1.00
2019-04-01T13:24:17.581Z,1.00
2019-04-01T13:26:19.256Z,1.00
2019-04-01T13:28:20.921Z,1.00
2019-04-01T13:30:24.301Z,1.00
2019-04-01T13:32:26.490Z,1.00
2019-04-01T13:34:28.165Z,1.00
2019-04-01T13:36:29.844Z,1.00
2019-04-01T13:38:31.530Z,1.00
2019-04-01T13:40:33.209Z,1.00
2019-04-01T13:42:34.884Z,1.00
2019-04-01T13:44:37.656Z,1.00
2019-04-01T13:46:39.734Z,1.00
2019-04-01T13:48:41.417Z,1.00
2019-04-01T13:50:43.101Z,1.00
2019-04-01T13:52:44.769Z,1.00
2019-04-01T13:54:46.446Z,1.00
2019-04-01T13:56:48.220Z,1.00
2019-04-01T13:58:50.209Z,1.00
2019-04-01T14:00:52.131Z,1.00
2019-04-01T14:02:53.933Z,1.00
2019-04-01T14:04:56.282Z,1.00
2019-04-01T14:06:58.093Z,1.00
2019-04-01T14:09:00.589Z,1.00
2019-04-01T14:11:05.836Z,1.00
2019-04-01T14:13:06.538Z,1.00
2019-04-01T14:15:08.217Z,1.00
2019-04-01T14:17:09.879Z,1.00
2019-04-01T14:19:11.559Z,1.00
2019-04-01T14:21:17.447Z,1.00
2019-04-01T14:23:18.311Z,1.00
2019-04-01T14:25:20.701Z,1.00
2019-04-01T14:27:22.674Z,1.00
2019-04-01T14:29:24.362Z,1.00
2019-04-01T14:31:26.136Z,1.00
2019-04-01T14:33:27.806Z,1.00
2019-04-01T14:35:29.493Z,1.00
2019-04-01T14:37:31.171Z,1.00
2019-04-01T14:39:34.804Z,1.00
2019-04-01T14:41:36.446Z,1.00
2019-04-01T14:43:38.203Z,1.00
2019-04-01T14:45:39.933Z,1.00
2019-04-01T14:47:56.145Z,1.00
2019-04-01T14:49:45.201Z,1.00
2019-04-01T14:51:46.869Z,1.00
2019-04-01T14:53:48.542Z,1.00
2019-04-01T14:55:50.214Z,1.00
2019-04-01T14:57:51.894Z,1.00
2019-04-01T14:59:56.282Z,1.00
2019-04-01T15:01:57.150Z,1.00
2019-04-01T15:03:58.938Z,1.00
2019-04-01T15:06:00.611Z,1.00
2019-04-01T15:08:02.566Z,1.00
2019-04-01T15:10:04.852Z,1.00
2019-04-01T15:12:06.770Z,1.00
2019-04-01T15:14:08.711Z,1.00
2019-04-01T15:16:10.905Z,1.00
2019-04-01T15:18:12.569Z,1.00
2019-04-01T15:20:14.245Z,1.00
2019-04-01T15:22:15.928Z,1.00
2019-04-01T15:24:17.918Z,1.00
2019-04-01T15:26:19.584Z,1.00
2019-04-01T15:28:21.261Z,1.00
2019-04-01T15:30:23.279Z,1.00
2019-04-01T15:32:24.940Z,1.00
2019-04-01T15:34:26.626Z,1.00
2019-04-01T15:36:28.297Z,1.00
2019-04-01T15:38:29.968Z,1.00
2019-04-01T15:40:33.280Z,1.00
2019-04-01T15:42:35.212Z,1.00
2019-04-01T15:44:37.954Z,1.00
2019-04-01T15:46:39.982Z,1.00
2019-04-01T15:48:41.655Z,1.00
2019-04-01T15:50:43.337Z,1.00
2019-04-01T15:52:45.017Z,1.00
2019-04-01T15:54:46.694Z,1.00
2019-04-01T15:56:48.361Z,1.00
2019-04-01T15:58:50.958Z,1.00
2019-04-01T16:00:53.039Z,1.00
2019-04-01T16:02:54.709Z,1.00
2019-04-01T16:04:56.395Z,1.00
2019-04-01T16:06:58.083Z,1.00
2019-04-01T16:09:00.001Z,1.00
2019-04-01T16:11:02.052Z,1.00
2019-04-01T16:13:04.190Z,1.00
2019-04-01T16:15:06.193Z,1.00
2019-04-01T16:17:08.146Z,1.00
2019-04-01T16:19:09.822Z,1.00
2019-04-01T16:21:11.500Z,1.00
2019-04-01T16:23:13.701Z,1.00
2019-04-01T16:25:15.415Z,1.00
2019-04-01T16:27:17.517Z,1.00
2019-04-01T16:29:19.497Z,1.00
2019-04-01T16:31:21.543Z,1.00
2019-04-01T16:33:23.498Z,1.00
2019-04-01T16:35:25.556Z,1.00
2019-04-01T16:37:27.233Z,1.00
2019-04-01T16:39:28.914Z,1.00
2019-04-01T16:41:30.914Z,1.00
2019-04-01T16:43:32.713Z,1.00
2019-04-01T16:45:34.669Z,1.00
2019-04-01T16:47:36.365Z,1.00
2019-04-01T16:49:38.034Z,1.00
2019-04-01T16:51:41.346Z,1.00
2019-04-01T16:53:44.538Z,1.00
2019-04-01T16:55:46.885Z,1.00
2019-04-01T16:57:48.560Z,1.00
2019-04-01T16:59:50.249Z,1.00
2019-04-01T17:01:52.359Z,1.00
2019-04-01T17:03:54.397Z,1.00
2019-04-01T17:05:56.080Z,1.00
2019-04-01T17:07:57.773Z,1.00
2019-04-01T17:09:59.788Z,1.00
2019-04-01T17:12:01.464Z,1.00
2019-04-01T17:14:03.142Z,1.00
2019-04-01T17:16:04.832Z,1.00
2019-04-01T17:18:06.492Z,1.00
2019-04-01T17:20:08.454Z,1.00
2019-04-01T17:22:11.572Z,1.00
2019-04-01T17:24:13.618Z,1.00
2019-04-01T17:26:15.301Z,1.00
2019-04-01T17:28:16.979Z,1.00
2019-04-01T17:30:19.061Z,1.00
2019-04-01T17:32:20.736Z,1.00
2019-04-01T17:34:22.409Z,1.00
2019-04-01T17:36:24.110Z,1.00
2019-04-01T17:38:25.893Z,1.00
2019-04-01T17:40:27.570Z,1.00
2019-04-01T17:42:29.244Z,1.00
2019-04-01T17:44:30.918Z,1.00
2019-04-01T17:46:32.598Z,1.00
2019-04-01T17:48:34.269Z,1.00
2019-04-01T17:53:40.149Z,1.00
2019-04-01T17:55:45.178Z,1.00
2019-04-01T17:57:46.240Z,1.00
2019-04-01T17:59:48.362Z,1.00
2019-04-01T18:01:50.032Z,1.00
2019-04-01T18:03:51.692Z,1.00
2019-04-01T18:05:53.366Z,1.00
2019-04-01T18:07:55.046Z,1.00
2019-04-01T18:09:56.716Z,1.00
2019-04-01T18:11:58.380Z,1.00
2019-04-01T18:14:02.750Z,1.00
2019-04-01T18:16:03.612Z,1.00
2019-04-01T18:18:05.292Z,1.00
2019-04-01T18:20:06.954Z,1.00
2019-04-01T18:22:10.148Z,1.00
2019-04-01T18:24:12.560Z,1.00
2019-04-01T18:26:14.544Z,1.00
2019-04-01T18:28:16.226Z,1.00
2019-04-01T18:30:17.923Z,1.00
2019-04-01T18:32:19.896Z,1.00
2019-04-01T18:34:21.858Z,1.00
2019-04-01T18:36:23.533Z,1.00
2019-04-01T18:38:25.209Z,1.00
2019-04-01T18:40:33.069Z,1.00
2019-04-01T18:42:31.300Z,1.00
2019-04-01T18:44:33.622Z,1.00
2019-04-01T18:46:35.288Z,1.00
2019-04-01T18:48:36.965Z,1.00
2019-04-01T18:50:38.638Z,1.00
2019-04-01T18:52:40.321Z,1.00
2019-04-01T18:54:41.976Z,1.00
2019-04-01T18:56:43.657Z,1.00
2019-04-01T18:58:45.329Z,1.00
2019-04-01T19:00:47.218Z,1.00
2019-04-01T19:02:49.780Z,1.00
2019-04-01T19:04:51.458Z,1.00
2019-04-01T19:06:53.137Z,1.00
2019-04-01T19:09:08.438Z,1.00
2019-04-01T19:11:02.503Z,1.00
2019-04-01T19:13:06.042Z,1.00
2019-04-01T19:15:06.905Z,1.00
2019-04-01T19:17:09.034Z,1.00
2019-04-01T19:19:11.243Z,1.00
2019-04-01T19:21:13.504Z,1.00
2019-04-01T19:23:15.184Z,1.00
2019-04-01T19:25:16.858Z,1.00
2019-04-01T19:27:18.533Z,1.00
2019-04-01T19:29:20.198Z,1.00
2019-04-01T19:31:21.870Z,1.00
2019-04-01T19:33:23.555Z,1.00
2019-04-01T19:35:25.225Z,1.00
2019-04-01T19:37:27.298Z,1.00
2019-04-01T19:39:30.366Z,1.00
2019-04-01T19:41:32.248Z,1.00
2019-04-01T19:43:33.918Z,1.00
2019-04-01T19:45:35.690Z,1.00
2019-04-01T19:47:37.443Z,1.00
2019-04-01T19:49:39.454Z,1.00
2019-04-01T19:51:41.121Z,1.00
2019-04-01T19:53:42.802Z,1.00
2019-04-01T19:55:44.470Z,1.00
2019-04-01T19:57:46.174Z,1.00
2019-04-01T19:59:48.222Z,1.00
2019-04-01T20:01:50.182Z,1.00
2019-04-01T20:03:51.852Z,1.00
2019-04-01T20:05:53.602Z,1.00
2019-04-01T20:07:55.283Z,1.00
2019-04-01T20:09:57.198Z,1.00
2019-04-01T20:11:58.865Z,1.00
2019-04-01T20:14:00.811Z,1.00
2019-04-01T20:16:03.713Z,1.00
2019-04-01T20:18:05.650Z,1.00
2019-04-01T20:20:07.604Z,1.00
2019-04-01T20:22:09.277Z,1.00
2019-04-01T20:24:11.197Z,1.00
2019-04-01T20:26:12.871Z,1.00
2019-04-01T20:28:14.549Z,1.00
2019-04-01T20:30:16.217Z,1.00
2019-04-01T20:32:19.997Z,1.00
2019-04-01T20:34:22.415Z,1.00
2019-04-01T20:36:28.921Z,1.00
2019-04-01T20:38:28.071Z,1.00
2019-04-01T20:40:30.060Z,1.00
2019-04-01T20:42:33.696Z,1.00
2019-04-01T20:44:35.569Z,1.00
2019-04-01T20:46:39.096Z,1.00
2019-04-01T20:48:40.810Z,1.00
2019-04-01T20:50:42.482Z,1.00
2019-04-01T20:52:44.154Z,1.00
2019-04-01T20:54:45.821Z,1.00
2019-04-01T20:56:48.206Z,1.00
2019-04-01T20:58:50.981Z,1.00
2019-04-01T21:00:52.640Z,1.00
2019-04-01T21:02:54.310Z,1.00
2019-04-01T21:04:56.337Z,1.00
2019-04-01T21:06:58.014Z,1.00
2019-04-01T21:08:59.699Z,1.00
2019-04-01T21:11:01.360Z,1.00
2019-04-01T21:13:03.358Z,1.00
2019-04-01T21:15:05.186Z,1.00
2019-04-01T21:17:06.855Z,1.00
2019-04-01T21:19:08.530Z,1.00
2019-04-01T21:21:10.444Z,1.00
2019-04-01T21:23:12.253Z,1.00
2019-04-01T21:25:13.938Z,1.00
2019-04-01T21:27:15.605Z,1.00
2019-04-01T21:29:17.588Z,1.00
2019-04-01T21:31:19.254Z,1.00
2019-04-01T21:33:20.923Z,1.00
2019-04-01T21:35:22.604Z,1.00
2019-04-01T21:37:24.281Z,1.00
2019-04-01T21:39:25.962Z,1.00
2019-04-01T21:41:27.621Z,1.00
2019-04-01T21:43:29.293Z,1.00
2019-04-01T21:45:30.975Z,1.00
2019-04-01T21:47:32.653Z,1.00
2019-04-01T21:49:34.334Z,1.00
2019-04-01T21:51:37.285Z,1.00
2019-04-01T21:53:39.038Z,1.00
2019-04-01T21:55:40.727Z,1.00
2019-04-01T21:57:42.410Z,1.00
2019-04-01T21:59:44.096Z,1.00
2019-04-01T22:01:46.291Z,1.00
2019-04-01T22:03:48.444Z,1.00
2019-04-01T22:05:50.150Z,1.00
2019-04-01T22:07:52.146Z,1.00
2019-04-01T22:09:53.820Z,1.00
2019-04-01T22:11:55.496Z,1.00
2019-04-01T22:13:57.258Z,1.00
2019-04-01T22:15:58.938Z,1.00
2019-04-01T22:18:00.608Z,1.00
2019-04-01T22:20:02.397Z,1.00
2019-04-01T22:22:04.081Z,1.00
2019-04-01T22:24:05.758Z,1.00
2019-04-01T22:26:07.442Z,1.00
2019-04-01T22:28:09.380Z,1.00
2019-04-01T22:30:11.065Z,1.00
2019-04-01T22:32:13.178Z,1.00
2019-04-01T22:34:15.645Z,1.00
2019-04-01T22:36:17.317Z,1.00
2019-04-01T22:38:25.079Z,1.00
2019-04-01T22:40:22.916Z,1.00
2019-04-01T22:42:24.906Z,1.00
2019-04-01T22:44:26.897Z,1.00
2019-04-01T22:46:28.846Z,1.00
2019-04-01T22:48:30.521Z,1.00
2019-04-01T22:50:32.474Z,1.00
2019-04-01T22:52:35.249Z,1.00
2019-04-01T22:54:37.323Z,1.00
2019-04-01T22:56:38.991Z,1.00
2019-04-01T22:58:40.665Z,1.00
2019-04-01T23:00:42.673Z,1.00
2019-04-01T23:02:44.346Z,1.00
2019-04-01T23:04:46.358Z,1.00
2019-04-01T23:06:48.350Z,1.00
2019-04-01T23:08:50.099Z,1.00
2019-04-01T23:10:52.366Z,1.00
2019-04-01T23:12:54.320Z,1.00
2019-04-01T23:14:55.988Z,1.00
2019-04-01T23:16:57.942Z,1.00
2019-04-01T23:18:59.609Z,1.00
2019-04-01T23:21:02.164Z,1.00
2019-04-01T23:23:04.455Z,1.00
2019-04-01T23:25:06.484Z,1.00
2019-04-01T23:27:08.166Z,1.00
2019-04-01T23:29:09.825Z,1.00
2019-04-01T23:31:11.505Z,1.00
2019-04-01T23:33:13.182Z,1.00
2019-04-01T23:35:14.873Z,1.00
2019-04-01T23:37:16.542Z,1.00
2019-04-01T23:39:18.204Z,1.00
2019-04-01T23:41:19.894Z,1.00
2019-04-01T23:43:21.560Z,1.00
2019-04-01T23:45:23.237Z,1.10
2019-04-01T23:47:24.917Z,1.10
2019-04-01T23:49:26.600Z,1.00
2019-04-01T23:51:28.285Z,1.50
2019-04-01T23:53:31.248Z,1.50
2019-04-01T23:55:33.346Z,2.30
2019-04-01T23:57:35.272Z,1.90
2019-04-01T23:59:36.937Z,2.40
